Time;durP1;ratioP1;P1;durP2;ratioP2;P2;SDS_P1;SDS_P2;PMS_P1;PMS_P2;Temp;Humidity;BMP_temperature;BMP_pressure;BME280_temperature;BME280_humidity;BME280_pressure;Samples;Min_cycle;Max_cycle;Signal;HPM_P1;HPM_P2
2022/09/02 00:01:48;;;;;;;2.67;1.05;;;15.70;99.90;;;;;;5012864;28;20050;-62
2022/09/02 00:04:20;;;;;;;2.65;1.08;;;15.60;99.90;;;;;;5012736;28;20069;-62
2022/09/02 00:06:48;;;;;;;2.30;1.10;;;15.60;99.90;;;;;;5012469;28;20733;-62
2022/09/02 00:09:16;;;;;;;2.20;1.20;;;15.60;99.90;;;;;;5012008;28;20455;-61
2022/09/02 00:11:44;;;;;;;2.10;1.13;;;15.70;99.90;;;;;;5011744;28;20121;-61
2022/09/02 00:14:14;;;;;;;1.60;1.30;;;15.60;99.90;;;;;;5012591;28;20406;-61
2022/09/02 00:16:43;;;;;;;3.67;1.17;;;15.60;99.90;;;;;;5015983;28;20030;-61
2022/09/02 00:19:09;;;;;;;2.35;1.35;;;15.60;99.90;;;;;;5018492;28;20057;-62
2022/09/02 00:21:35;;;;;;;3.20;1.52;;;15.50;99.90;;;;;;5019204;28;20038;-61
2022/09/02 00:24:03;;;;;;;3.38;1.33;;;15.50;99.90;;;;;;5018565;28;20044;-62
2022/09/02 00:26:28;;;;;;;1.58;1.15;;;15.60;99.90;;;;;;5018053;28;20439;-62
2022/09/02 00:28:54;;;;;;;2.72;1.02;;;15.40;99.90;;;;;;5018631;28;20050;-64
2022/09/02 00:31:20;;;;;;;3.08;1.20;;;15.50;99.90;;;;;;5019629;28;20038;-64
2022/09/02 00:33:45;;;;;;;3.00;1.30;;;15.50;99.90;;;;;;5001356;28;20048;-61
2022/09/02 00:36:12;;;;;;;2.25;1.10;;;15.50;99.90;;;;;;5019381;28;20366;-62
2022/09/02 00:38:38;;;;;;;2.22;1.00;;;15.40;99.90;;;;;;5018423;28;20462;-61
2022/09/02 00:41:07;;;;;;;2.08;1.10;;;15.40;99.90;;;;;;5020684;28;20453;-62
2022/09/02 00:43:54;;;;;;;3.33;1.20;;;15.40;99.90;;;;;;5018762;28;20381;-62
2022/09/02 00:46:23;;;;;;;1.80;1.00;;;15.40;99.90;;;;;;5019031;28;20033;-62
2022/09/02 00:48:57;;;;;;;4.18;1.15;;;15.30;99.90;;;;;;5018655;28;20050;-61
2022/09/02 00:51:24;;;;;;;2.47;1.10;;;15.30;99.90;;;;;;4991859;28;20038;-62
2022/09/02 00:53:50;;;;;;;2.15;0.98;;;15.30;99.90;;;;;;5018629;28;20056;-62
2022/09/02 00:56:21;;;;;;;2.45;1.15;;;15.30;99.90;;;;;;5018122;28;20038;-62
2022/09/02 00:58:49;;;;;;;1.70;0.93;;;15.20;99.90;;;;;;5018242;28;20423;-62
2022/09/02 01:01:15;;;;;;;1.67;1.00;;;15.30;99.90;;;;;;5011364;28;20042;-62
2022/09/02 01:03:41;;;;;;;1.50;1.13;;;15.20;99.90;;;;;;5018946;28;20049;-62
2022/09/02 01:06:10;;;;;;;2.42;1.10;;;15.20;99.90;;;;;;5019108;28;20041;-62
2022/09/02 01:08:38;;;;;;;3.65;1.15;;;15.20;99.90;;;;;;5026452;28;20116;-62
2022/09/02 01:11:05;;;;;;;2.85;1.00;;;15.10;99.90;;;;;;5024069;28;20477;-62
2022/09/02 01:13:36;;;;;;;1.95;1.08;;;15.10;99.90;;;;;;5024876;28;20492;-62
2022/09/02 01:16:10;;;;;;;2.17;1.10;;;15.10;99.90;;;;;;4994451;28;20479;-62
2022/09/02 01:18:36;;;;;;;1.48;1.10;;;15.10;99.90;;;;;;5011579;28;20067;-62
2022/09/02 01:21:02;;;;;;;2.60;1.25;;;15.00;99.90;;;;;;5037244;28;20037;-62
2022/09/02 01:23:30;;;;;;;3.63;1.05;;;15.00;99.90;;;;;;5019606;28;20042;-62
2022/09/02 01:25:56;;;;;;;5.65;1.10;;;15.00;99.90;;;;;;5000394;28;20455;-62
2022/09/02 01:28:22;;;;;;;3.47;1.20;;;14.90;99.90;;;;;;5015696;28;20044;-62
2022/09/02 01:30:51;;;;;;;3.28;1.30;;;14.90;99.90;;;;;;5020775;28;20045;-61
2022/09/02 01:33:18;;;;;;;3.25;1.00;;;15.00;99.90;;;;;;4981560;28;20100;-62
2022/09/02 01:35:45;;;;;;;7.60;1.30;;;15.00;99.90;;;;;;4997657;28;20085;-62
2022/09/02 01:38:11;;;;;;;3.53;1.10;;;14.90;99.90;;;;;;5014994;28;20445;-61
2022/09/02 01:40:37;;;;;;;2.60;1.08;;;14.80;99.90;;;;;;5015134;28;20069;-62
2022/09/02 01:43:10;;;;;;;1.75;1.10;;;14.80;99.90;;;;;;5015209;28;20084;-61
2022/09/02 01:45:38;;;;;;;5.78;1.48;;;14.90;99.90;;;;;;5014950;28;20088;-62
2022/09/02 01:48:05;;;;;;;2.15;1.13;;;14.90;99.90;;;;;;5014927;28;20041;-62
2022/09/02 01:50:32;;;;;;;0.90;0.90;;;14.80;99.90;;;;;;5022762;28;20041;-62
2022/09/02 01:53:02;;;;;;;2.20;1.10;;;14.80;99.90;;;;;;5015218;28;20041;-61
2022/09/02 01:55:28;;;;;;;1.63;1.02;;;14.80;99.90;;;;;;5025867;28;20046;-62
2022/09/02 01:57:54;;;;;;;2.90;1.10;;;14.80;99.90;;;;;;5014356;28;20108;-62
2022/09/02 02:00:21;;;;;;;1.33;0.90;;;14.70;99.90;;;;;;5020721;28;20410;-61
2022/09/02 02:02:46;;;;;;;5.18;1.67;;;14.70;99.90;;;;;;5017885;28;20116;-62
2022/09/02 02:05:14;;;;;;;1.77;1.10;;;14.70;99.90;;;;;;5014823;28;20058;-61
2022/09/02 02:07:41;;;;;;;2.58;1.10;;;14.60;99.90;;;;;;5014336;28;20053;-61
2022/09/02 02:10:09;;;;;;;2.20;1.13;;;14.80;99.90;;;;;;5015113;28;20046;-62
2022/09/02 02:12:35;;;;;;;4.05;1.20;;;14.60;99.90;;;;;;5013724;28;20417;-62
2022/09/02 02:15:04;;;;;;;2.08;1.08;;;14.60;99.90;;;;;;5014444;28;20042;-61
2022/09/02 02:17:29;;;;;;;2.50;1.10;;;14.70;99.90;;;;;;5014136;28;20045;-62
2022/09/02 02:19:55;;;;;;;2.65;1.00;;;14.60;99.90;;;;;;5014557;28;20029;-63
2022/09/02 02:22:20;;;;;;;1.83;1.00;;;14.60;99.90;;;;;;5014289;28;20049;-61
2022/09/02 02:24:46;;;;;;;1.98;1.10;;;14.60;99.90;;;;;;5014286;28;20048;-62
2022/09/02 02:27:12;;;;;;;4.10;1.10;;;14.60;99.90;;;;;;5013613;28;20033;-61
2022/09/02 02:29:37;;;;;;;1.10;1.00;;;14.40;99.90;;;;;;5014332;28;20049;-62
2022/09/02 02:32:04;;;;;;;2.22;1.00;;;14.60;99.90;;;;;;5018906;28;20458;-62
2022/09/02 02:34:30;;;;;;;2.80;1.13;;;14.50;99.90;;;;;;5014021;28;20037;-62
2022/09/02 02:36:55;;;;;;;1.25;1.15;;;14.60;99.90;;;;;;5013735;28;20450;-62
2022/09/02 02:39:21;;;;;;;1.80;1.00;;;14.60;99.90;;;;;;5012925;28;20040;-62
2022/09/02 02:41:47;;;;;;;1.70;1.40;;;14.50;99.90;;;;;;5019794;28;20046;-61
2022/09/02 02:44:13;;;;;;;4.15;1.10;;;14.50;99.90;;;;;;5014093;28;20037;-61
2022/09/02 02:46:38;;;;;;;3.25;1.20;;;14.40;99.90;;;;;;5014185;28;20044;-61
2022/09/02 02:49:05;;;;;;;1.77;1.10;;;14.40;99.90;;;;;;5013269;28;20489;-62
2022/09/02 02:51:31;;;;;;;2.67;1.10;;;14.40;99.90;;;;;;5021928;28;20041;-62
2022/09/02 02:53:58;;;;;;;2.13;1.00;;;14.40;99.90;;;;;;5013254;28;20511;-62
2022/09/02 02:56:24;;;;;;;3.05;1.30;;;14.40;99.90;;;;;;5013261;28;20052;-62
2022/09/02 02:58:51;;;;;;;1.63;1.10;;;14.40;99.90;;;;;;5013543;28;20041;-62
2022/09/02 03:01:16;;;;;;;3.17;1.10;;;14.40;99.90;;;;;;5013781;28;20046;-62
2022/09/02 03:03:43;;;;;;;2.35;1.10;;;14.40;99.90;;;;;;5013956;28;20065;-61
2022/09/02 03:06:09;;;;;;;5.32;1.30;;;14.40;99.90;;;;;;4996447;28;20056;-62
2022/09/02 03:08:36;;;;;;;1.95;1.17;;;14.30;99.90;;;;;;5013233;28;20485;-61
2022/09/02 03:11:04;;;;;;;3.78;1.20;;;14.30;99.90;;;;;;5013793;28;20077;-61
2022/09/02 03:13:31;;;;;;;4.65;1.30;;;14.30;99.90;;;;;;5013151;28;20034;-62
2022/09/02 03:15:56;;;;;;;2.42;1.30;;;14.30;99.90;;;;;;5013255;28;20045;-62
2022/09/02 03:18:22;;;;;;;3.22;1.13;;;14.30;99.90;;;;;;4991000;28;20049;-62
2022/09/02 03:20:48;;;;;;;2.40;1.30;;;14.30;99.90;;;;;;5013241;28;20038;-62
2022/09/02 03:23:14;;;;;;;2.55;1.20;;;14.20;99.90;;;;;;5018805;28;20042;-61
2022/09/02 03:25:42;;;;;;;1.10;1.00;;;14.30;99.90;;;;;;5024561;28;20041;-62
2022/09/02 03:28:08;;;;;;;2.85;1.20;;;14.30;99.90;;;;;;5012178;28;20042;-61
2022/09/02 03:30:34;;;;;;;3.38;1.05;;;14.30;99.90;;;;;;5013486;28;20124;-62
2022/09/02 03:33:02;;;;;;;1.85;1.20;;;14.20;99.90;;;;;;5004411;28;20046;-61
2022/09/02 03:35:29;;;;;;;3.05;1.10;;;14.20;99.90;;;;;;5008382;28;20347;-63
2022/09/02 03:37:55;;;;;;;1.45;1.15;;;14.20;99.90;;;;;;5012654;28;20116;-62
2022/09/02 03:40:23;;;;;;;2.00;1.10;;;14.20;99.90;;;;;;5013642;28;20485;-62
2022/09/02 03:42:49;;;;;;;2.03;1.30;;;14.20;99.90;;;;;;5019306;28;20512;-62
2022/09/02 03:45:16;;;;;;;2.72;1.27;;;14.20;99.90;;;;;;5012710;28;20501;-61
2022/09/02 03:48:04;;;;;;;2.28;1.35;;;14.20;99.90;;;;;;5012316;28;20049;-61
2022/09/02 03:50:34;;;;;;;4.82;1.27;;;14.20;99.90;;;;;;5018579;28;20083;-61
2022/09/02 03:53:00;;;;;;;3.08;1.15;;;14.20;99.90;;;;;;4995677;28;20112;-62
2022/09/02 03:55:26;;;;;;;4.13;1.27;;;14.10;99.90;;;;;;5012712;28;20507;-62
2022/09/02 03:57:52;;;;;;;1.67;1.25;;;14.20;99.90;;;;;;5011748;28;20037;-61
2022/09/02 04:00:22;;;;;;;2.55;1.27;;;14.20;99.90;;;;;;5017673;28;20450;-62
2022/09/02 04:02:48;;;;;;;3.05;1.52;;;14.20;99.90;;;;;;5015770;28;20065;-65
2022/09/02 04:05:14;;;;;;;2.15;1.40;;;14.10;99.90;;;;;;5012552;28;20046;-61
2022/09/02 04:07:40;;;;;;;2.67;1.30;;;14.20;99.90;;;;;;5026024;28;20121;-62
2022/09/02 04:10:07;;;;;;;1.88;1.30;;;14.10;99.90;;;;;;5015146;28;20037;-62
2022/09/02 04:12:34;;;;;;;2.50;1.30;;;14.10;99.90;;;;;;5012129;28;20056;-62
2022/09/02 04:15:01;;;;;;;2.92;1.30;;;14.10;99.90;;;;;;4994967;28;20399;-62
2022/09/02 04:17:27;;;;;;;3.47;1.20;;;14.10;99.90;;;;;;5012353;28;20076;-62
2022/09/02 04:19:56;;;;;;;1.23;1.08;;;14.00;99.90;;;;;;5013821;28;20061;-61
2022/09/02 04:22:21;;;;;;;3.50;1.42;;;14.20;99.90;;;;;;5022766;28;20403;-62
2022/09/02 04:24:47;;;;;;;2.38;1.20;;;14.10;99.90;;;;;;4978681;28;20532;-61
2022/09/02 04:27:13;;;;;;;4.13;1.50;;;14.00;99.90;;;;;;4994124;28;20033;-61
2022/09/02 04:29:38;;;;;;;3.10;1.33;;;14.10;99.90;;;;;;5012201;28;20134;-61
2022/09/02 04:32:04;;;;;;;1.55;1.10;;;14.00;99.90;;;;;;5012360;28;20081;-62
2022/09/02 04:34:30;;;;;;;3.47;1.50;;;14.00;99.90;;;;;;5012371;28;20038;-62
2022/09/02 04:36:55;;;;;;;4.82;1.30;;;14.10;99.90;;;;;;5012408;28;20458;-63
2022/09/02 04:39:21;;;;;;;3.05;1.33;;;13.90;99.90;;;;;;5012567;28;20029;-62
2022/09/02 04:41:47;;;;;;;4.03;1.65;;;14.00;99.90;;;;;;5018130;28;20049;-63
2022/09/02 04:44:13;;;;;;;6.03;1.30;;;13.90;99.90;;;;;;5012144;28;20451;-62
2022/09/02 04:46:39;;;;;;;3.85;1.70;;;13.90;99.90;;;;;;4995188;28;20124;-62
2022/09/02 04:49:04;;;;;;;2.72;1.20;;;14.00;99.90;;;;;;5012072;28;20120;-61
2022/09/02 04:51:31;;;;;;;3.00;1.42;;;13.90;99.90;;;;;;4994923;28;20137;-62
2022/09/02 04:53:57;;;;;;;3.10;1.38;;;13.90;99.90;;;;;;5012129;28;20041;-62
2022/09/02 04:56:25;;;;;;;1.75;1.35;;;13.90;99.90;;;;;;5019172;28;20053;-62
2022/09/02 04:58:51;;;;;;;2.58;1.52;;;13.80;99.90;;;;;;5024131;28;20109;-62
2022/09/02 05:01:22;;;;;;;4.25;1.33;;;13.80;99.90;;;;;;5025776;28;20089;-61
2022/09/02 05:03:48;;;;;;;2.20;1.58;;;13.80;99.90;;;;;;5028399;28;20394;-62
2022/09/02 05:06:18;;;;;;;4.18;1.80;;;13.80;99.90;;;;;;5030768;28;20033;-61
2022/09/02 05:08:46;;;;;;;2.13;1.40;;;13.80;99.90;;;;;;5028750;28;20274;-61
2022/09/02 05:11:19;;;;;;;2.75;1.45;;;13.80;99.90;;;;;;5025503;28;20033;-61
2022/09/02 05:13:52;;;;;;;4.63;1.80;;;13.80;99.90;;;;;;5006574;28;20366;-61
2022/09/02 05:16:21;;;;;;;3.67;1.90;;;13.80;99.90;;;;;;5024764;28;20073;-60
2022/09/02 05:18:47;;;;;;;2.67;1.60;;;13.90;99.90;;;;;;5017696;28;20275;-61
2022/09/02 05:21:13;;;;;;;3.05;1.48;;;13.90;99.90;;;;;;5028271;28;20454;-60
2022/09/02 05:23:39;;;;;;;4.43;1.67;;;13.90;99.90;;;;;;5004596;28;20096;-61
2022/09/02 05:26:07;;;;;;;4.13;1.63;;;14.00;99.90;;;;;;5005469;28;20050;-61
2022/09/02 05:28:32;;;;;;;5.35;1.70;;;13.90;99.90;;;;;;4997332;28;20042;-61
2022/09/02 05:31:04;;;;;;;3.53;1.70;;;14.00;99.90;;;;;;5026195;28;20500;-61
2022/09/02 05:33:31;;;;;;;4.95;1.75;;;14.00;99.90;;;;;;5016652;28;20042;-62
2022/09/02 05:35:57;;;;;;;2.95;1.75;;;14.10;99.90;;;;;;5027045;28;20083;-62
2022/09/02 05:38:24;;;;;;;2.78;1.70;;;14.10;99.90;;;;;;5016593;28;20038;-61
2022/09/02 05:40:49;;;;;;;1.90;1.50;;;14.20;99.90;;;;;;5032270;28;20052;-62
2022/09/02 05:43:15;;;;;;;4.43;1.75;;;14.20;99.90;;;;;;5025217;28;20113;-61
2022/09/02 05:45:41;;;;;;;2.45;1.70;;;14.30;99.90;;;;;;5028090;28;20137;-60
2022/09/02 05:50:53;;;;;;;4.60;1.60;;;15.20;99.90;;;;;;4995010;28;20417;-61
2022/09/02 05:53:18;;;;;;;5.13;2.17;;;15.70;99.90;;;;;;5026610;28;20048;-61
2022/09/02 05:55:44;;;;;;;4.55;1.67;;;15.90;99.90;;;;;;5029332;28;20033;-61
2022/09/02 05:58:10;;;;;;;4.35;1.70;;;16.20;99.90;;;;;;5023554;28;20029;-61
2022/09/02 06:00:38;;;;;;;3.50;1.63;;;16.60;99.90;;;;;;5018188;28;20349;-61
2022/09/02 06:03:04;;;;;;;2.40;1.38;;;16.80;99.90;;;;;;5012187;28;20042;-61
2022/09/02 06:05:29;;;;;;;6.18;1.55;;;17.20;99.90;;;;;;5023362;28;20486;-61
2022/09/02 06:07:55;;;;;;;3.50;1.50;;;17.50;99.90;;;;;;5013556;28;20033;-61
2022/09/02 06:10:21;;;;;;;2.60;1.60;;;17.70;99.90;;;;;;5025444;28;20037;-63
2022/09/02 06:12:46;;;;;;;4.63;1.50;;;17.90;99.80;;;;;;5003452;28;20468;-63
2022/09/02 06:15:13;;;;;;;2.92;1.50;;;17.90;99.80;;;;;;5023862;28;20198;-60
2022/09/02 06:17:39;;;;;;;3.75;1.63;;;18.20;99.50;;;;;;5019975;28;20055;-63
2022/09/02 06:20:05;;;;;;;4.55;1.50;;;18.10;99.50;;;;;;5031567;28;21070;-61
2022/09/02 06:22:31;;;;;;;2.75;1.70;;;18.20;99.40;;;;;;5027820;28;20127;-62
2022/09/02 06:24:57;;;;;;;7.07;1.67;;;18.40;99.40;;;;;;5028216;28;20056;-62
2022/09/02 06:27:23;;;;;;;2.58;1.58;;;18.30;99.20;;;;;;5021090;28;20041;-62
2022/09/02 06:29:48;;;;;;;3.05;1.60;;;17.80;99.90;;;;;;5015490;28;20041;-62
2022/09/02 06:32:14;;;;;;;3.55;1.58;;;17.50;99.90;;;;;;5016220;28;20455;-61
2022/09/02 06:34:39;;;;;;;4.15;1.95;;;17.20;99.90;;;;;;5013937;28;20348;-61
2022/09/02 06:37:05;;;;;;;4.25;2.03;;;17.30;99.90;;;;;;5026891;28;20401;-61
2022/09/02 06:39:31;;;;;;;6.10;2.08;;;17.20;99.90;;;;;;5026567;28;20049;-61
2022/09/02 06:41:57;;;;;;;3.13;1.55;;;17.10;99.90;;;;;;5021690;28;20029;-61
2022/09/02 06:44:23;;;;;;;3.30;1.77;;;17.20;99.90;;;;;;5014299;28;20049;-62
2022/09/02 06:46:54;;;;;;;3.50;1.75;;;17.00;99.90;;;;;;5017818;28;20038;-61
2022/09/02 06:49:21;;;;;;;3.28;1.70;;;16.80;99.90;;;;;;5015627;28;20034;-61
2022/09/02 06:51:49;;;;;;;2.58;1.60;;;16.90;99.90;;;;;;5017013;28;20065;-61
2022/09/02 06:54:19;;;;;;;3.15;1.83;;;17.20;99.90;;;;;;5013320;28;20037;-61
2022/09/02 06:56:46;;;;;;;4.88;1.90;;;17.20;99.90;;;;;;4987712;28;20056;-62
2022/09/02 06:59:11;;;;;;;3.17;1.55;;;17.20;99.90;;;;;;5014200;28;20037;-61
2022/09/02 07:01:37;;;;;;;3.42;1.70;;;17.60;99.90;;;;;;5012297;28;20048;-62
2022/09/02 07:06:51;;;;;;;3.30;1.80;;;18.40;99.90;;;;;;5013296;28;20422;-62
2022/09/02 07:09:20;;;;;;;3.72;1.50;;;18.20;99.90;;;;;;5014725;28;20518;-63
2022/09/02 07:11:47;;;;;;;2.88;1.42;;;18.20;99.90;;;;;;5014309;28;20762;-61
2022/09/02 07:14:14;;;;;;;4.00;1.60;;;18.00;99.90;;;;;;5012618;28;20044;-61
2022/09/02 07:16:45;;;;;;;3.72;1.90;;;17.90;99.90;;;;;;5019471;28;20092;-61
2022/09/02 07:19:13;;;;;;;2.38;1.42;;;17.80;99.90;;;;;;5000351;28;20489;-61
2022/09/02 07:21:40;;;;;;;3.35;1.70;;;17.70;99.90;;;;;;5017010;28;20136;-61
2022/09/02 07:24:07;;;;;;;4.25;1.98;;;17.70;99.90;;;;;;5022185;28;20113;-61
2022/09/02 07:26:33;;;;;;;3.00;1.70;;;17.70;99.90;;;;;;5023223;28;20108;-61
2022/09/02 07:28:59;;;;;;;4.20;1.73;;;17.60;99.90;;;;;;5001107;28;20124;-63
2022/09/02 07:31:28;;;;;;;4.85;1.73;;;17.60;99.90;;;;;;5030589;28;20455;-61
2022/09/02 07:33:57;;;;;;;4.88;2.00;;;17.60;99.90;;;;;;5020534;28;20107;-62
2022/09/02 07:36:27;;;;;;;5.63;2.03;;;17.60;99.90;;;;;;5024613;28;20038;-62
2022/09/02 07:38:53;;;;;;;3.08;1.90;;;17.70;99.90;;;;;;5016854;28;20045;-62
2022/09/02 07:41:20;;;;;;;4.00;1.70;;;17.90;99.90;;;;;;5028218;28;20056;-63
2022/09/02 07:43:45;;;;;;;5.03;1.98;;;18.00;99.90;;;;;;5007858;28;20107;-61
2022/09/02 07:46:12;;;;;;;3.85;1.63;;;18.10;99.90;;;;;;5015721;28;20045;-62
2022/09/02 07:48:38;;;;;;;5.10;1.83;;;18.20;99.90;;;;;;5029376;28;20048;-62
2022/09/02 07:51:05;;;;;;;4.88;1.95;;;18.30;99.90;;;;;;5020781;28;20121;-61
2022/09/02 07:53:31;;;;;;;4.20;2.08;;;18.60;99.90;;;;;;5022998;28;20378;-61
2022/09/02 07:55:58;;;;;;;4.40;1.63;;;18.70;99.90;;;;;;4998049;28;20045;-63
2022/09/02 07:58:25;;;;;;;3.42;1.60;;;18.80;99.90;;;;;;5025093;28;20021;-62
2022/09/02 08:00:52;;;;;;;4.95;1.65;;;19.00;99.90;;;;;;5018339;28;20054;-62
2022/09/02 08:03:18;;;;;;;3.60;1.70;;;19.00;99.90;;;;;;4989167;28;20045;-62
2022/09/02 08:05:45;;;;;;;6.57;2.00;;;18.90;99.90;;;;;;5001850;28;20037;-62
2022/09/02 08:08:13;;;;;;;4.43;1.70;;;18.80;99.90;;;;;;5020352;28;20117;-61
2022/09/02 08:10:40;;;;;;;6.18;2.03;;;18.90;99.90;;;;;;5025018;28;20042;-62
2022/09/02 08:13:06;;;;;;;4.93;1.90;;;18.90;99.90;;;;;;5003439;28;20044;-62
2022/09/02 08:15:34;;;;;;;3.55;1.83;;;19.10;99.90;;;;;;5017906;28;20152;-62
2022/09/02 08:18:00;;;;;;;2.65;1.50;;;19.30;99.90;;;;;;5027324;28;20033;-62
2022/09/02 08:20:26;;;;;;;2.13;1.50;;;19.50;99.80;;;;;;5021178;28;20069;-61
2022/09/02 08:22:52;;;;;;;4.22;1.90;;;19.60;99.30;;;;;;5021565;28;20088;-62
2022/09/02 08:25:18;;;;;;;4.85;1.70;;;19.70;99.10;;;;;;5025669;28;20240;-62
2022/09/02 08:27:45;;;;;;;2.95;1.75;;;19.80;98.60;;;;;;5000986;28;20049;-62
2022/09/02 08:30:11;;;;;;;6.35;1.85;;;20.00;98.40;;;;;;5009334;28;20056;-62
2022/09/02 08:32:38;;;;;;;4.25;1.55;;;20.00;98.20;;;;;;5012390;28;20100;-62
2022/09/02 08:35:05;;;;;;;3.38;1.55;;;20.10;98.50;;;;;;4989508;28;20121;-61
2022/09/02 08:37:32;;;;;;;2.70;1.63;;;20.30;98.20;;;;;;5004378;28;20451;-63
2022/09/02 08:40:03;;;;;;;3.10;1.75;;;20.40;98.30;;;;;;5016625;28;20037;-62
2022/09/02 08:42:38;;;;;;;3.00;1.60;;;20.50;98.00;;;;;;5000385;28;20034;-64
2022/09/02 08:45:38;;;;;;;3.60;1.63;;;20.50;97.60;;;;;;5015266;28;20076;-63
2022/09/02 08:48:14;;;;;;;4.30;1.65;;;20.60;97.40;;;;;;5014406;28;20439;-63
2022/09/02 08:50:43;;;;;;;2.45;1.70;;;20.60;97.50;;;;;;5020790;28;20442;-64
2022/09/02 08:53:30;;;;;;;2.55;1.40;;;20.60;97.40;;;;;;5016208;28;20076;-63
2022/09/02 08:55:58;;;;;;;3.08;1.70;;;20.70;97.50;;;;;;5015884;28;20042;-65
2022/09/02 08:58:28;;;;;;;4.03;1.45;;;21.00;97.50;;;;;;4990669;28;20060;-63
2022/09/02 09:01:26;;;;;;;3.45;1.50;;;21.10;97.30;;;;;;4990842;28;20496;-63
2022/09/02 09:04:15;;;;;;;2.85;1.50;;;21.30;97.20;;;;;;5003284;28;20050;-64
2022/09/02 09:07:01;;;;;;;6.65;1.60;;;21.40;96.60;;;;;;4992625;28;20507;-64
2022/09/02 09:09:44;;;;;;;4.20;1.80;;;21.40;96.30;;;;;;4980514;28;20046;-64
2022/09/02 09:12:45;;;;;;;3.40;1.50;;;21.50;96.50;;;;;;5000645;28;20045;-63
2022/09/02 09:15:13;;;;;;;2.60;1.50;;;21.60;96.50;;;;;;4981029;28;20038;-63
2022/09/02 09:17:56;;;;;;;5.25;1.60;;;21.80;95.90;;;;;;4997484;28;20037;-64
2022/09/02 09:20:26;;;;;;;4.03;1.70;;;21.80;95.60;;;;;;5010229;28;20137;-63
2022/09/02 09:22:55;;;;;;;4.43;1.45;;;21.80;95.50;;;;;;5018650;28;20038;-63
2022/09/02 09:25:28;;;;;;;5.68;1.50;;;21.90;96.00;;;;;;4997956;28;20409;-63
2022/09/02 09:27:58;;;;;;;5.18;1.55;;;22.10;95.80;;;;;;4997994;28;20121;-63
2022/09/02 09:30:24;;;;;;;3.47;1.45;;;22.30;95.10;;;;;;4997916;28;20065;-63
2022/09/02 09:32:56;;;;;;;3.38;1.55;;;22.30;95.00;;;;;;5015428;28;20054;-64
2022/09/02 09:35:23;;;;;;;6.53;1.48;;;22.40;95.00;;;;;;5028870;28;20053;-63
2022/09/02 09:37:53;;;;;;;4.05;1.58;;;22.50;94.70;;;;;;5021110;28;20038;-63
2022/09/02 09:40:21;;;;;;;3.17;1.42;;;22.60;94.60;;;;;;5006854;28;20057;-63
2022/09/02 09:43:05;;;;;;;1.75;1.15;;;22.70;94.70;;;;;;5015754;28;20033;-64
2022/09/02 09:45:34;;;;;;;2.45;1.30;;;22.60;94.20;;;;;;5019266;28;20046;-65
2022/09/02 09:48:18;;;;;;;2.63;1.70;;;22.70;94.20;;;;;;5002471;28;20088;-64
2022/09/02 09:50:52;;;;;;;2.83;1.48;;;22.80;94.40;;;;;;4996837;28;20421;-63
2022/09/02 09:53:21;;;;;;;4.47;1.52;;;22.90;94.20;;;;;;4990764;28;21091;-63
2022/09/02 09:55:54;;;;;;;4.05;1.55;;;23.00;94.00;;;;;;5002848;28;20044;-63
2022/09/02 09:58:40;;;;;;;3.20;1.40;;;23.10;93.60;;;;;;5006832;28;20125;-64
2022/09/02 10:01:31;;;;;;;6.20;1.48;;;23.20;93.60;;;;;;4997176;28;20059;-64
2022/09/02 10:04:30;;;;;;;1.63;1.10;;;23.30;93.40;;;;;;4996054;28;20099;-61
2022/09/02 10:06:55;;;;;;;2.50;1.27;;;23.30;93.10;;;;;;5016757;28;20646;-63
2022/09/02 10:09:30;;;;;;;2.15;1.20;;;23.40;93.10;;;;;;5014273;28;20042;-63
2022/09/02 10:12:12;;;;;;;2.28;1.10;;;23.50;93.40;;;;;;5011729;28;20061;-62
2022/09/02 10:14:41;;;;;;;3.03;1.30;;;23.70;92.20;;;;;;4996937;28;20049;-65
2022/09/02 10:17:18;;;;;;;2.63;1.38;;;23.80;92.40;;;;;;5013517;28;20044;-64
2022/09/02 10:20:03;;;;;;;4.25;1.45;;;23.80;91.50;;;;;;5003372;28;20034;-64
2022/09/02 10:23:11;;;;;;;1.77;1.10;;;23.80;91.70;;;;;;4997144;28;20184;-63
2022/09/02 10:26:06;;;;;;;2.08;1.00;;;24.00;91.10;;;;;;4987954;28;20422;-63
2022/09/02 10:29:10;;;;;;;1.17;0.90;;;24.10;91.40;;;;;;5025988;28;20037;-61
2022/09/02 10:32:04;;;;;;;3.75;1.50;;;24.00;91.30;;;;;;4994376;28;20046;-61
2022/09/02 10:34:44;;;;;;;1.35;1.13;;;24.10;91.00;;;;;;5011259;28;20081;-64
2022/09/02 10:37:13;;;;;;;2.97;1.67;;;24.20;90.80;;;;;;5018032;28;20041;-64
2022/09/02 10:39:41;;;;;;;2.28;1.30;;;24.30;90.60;;;;;;4993504;28;20049;-65
2022/09/02 10:42:34;;;;;;;1.73;1.05;;;24.40;90.70;;;;;;5021667;28;20160;-64
2022/09/02 10:45:23;;;;;;;5.28;1.10;;;24.50;91.10;;;;;;5003775;28;20399;-64
2022/09/02 10:48:08;;;;;;;1.90;1.08;;;24.40;89.90;;;;;;5000671;28;20078;-65
2022/09/02 10:50:44;;;;;;;4.93;1.00;;;24.40;89.90;;;;;;5007874;28;20037;-64
2022/09/02 10:53:36;;;;;;;2.05;1.10;;;24.40;89.80;;;;;;5008276;28;20069;-64
2022/09/02 10:56:09;;;;;;;2.22;1.20;;;24.50;90.30;;;;;;5011873;28;20464;-64
2022/09/02 10:58:55;;;;;;;2.83;1.13;;;24.60;90.10;;;;;;5013513;28;20041;-64
2022/09/02 11:01:30;;;;;;;3.00;1.30;;;24.70;89.70;;;;;;5024026;28;20041;-64
2022/09/02 11:04:02;;;;;;;3.25;1.45;;;24.80;88.70;;;;;;5032182;28;20045;-65
2022/09/02 11:06:34;;;;;;;1.35;1.05;;;24.80;88.60;;;;;;5005871;28;20121;-65
2022/09/02 11:09:05;;;;;;;3.05;1.20;;;24.80;89.30;;;;;;5012072;28;20092;-65
2022/09/02 11:11:47;;;;;;;3.97;1.13;;;24.90;89.10;;;;;;5003639;28;20048;-63
2022/09/02 11:14:31;;;;;;;2.13;1.30;;;25.00;87.40;;;;;;5031034;28;20104;-65
2022/09/02 11:17:26;;;;;;;2.33;1.17;;;25.00;87.90;;;;;;5017764;28;20046;-65
2022/09/02 11:20:01;;;;;;;3.33;1.50;;;25.10;88.30;;;;;;5012468;28;20104;-64
2022/09/02 11:22:56;;;;;;;5.43;1.40;;;25.00;88.30;;;;;;5002296;28;20048;-65
2022/09/02 11:25:38;;;;;;;4.13;1.30;;;25.00;88.70;;;;;;5011644;28;20098;-64
2022/09/02 11:28:19;;;;;;;2.38;1.00;;;25.10;88.30;;;;;;5030726;28;20033;-63
2022/09/02 11:31:34;;;;;;;3.35;1.30;;;25.10;88.30;;;;;;5010568;28;20049;-64
2022/09/02 11:34:21;;;;;;;2.03;1.20;;;25.10;87.10;;;;;;4990921;28;20533;-63
2022/09/02 11:36:47;;;;;;;1.88;1.15;;;25.10;87.00;;;;;;5012896;28;20041;-63
2022/09/02 11:39:28;;;;;;;6.10;1.60;;;25.10;87.00;;;;;;5030576;28;20041;-63
2022/09/02 11:42:36;;;;;;;5.05;1.80;;;25.10;87.00;;;;;;5001138;28;20719;-63
2022/09/02 11:45:12;;;;;;;4.43;1.38;;;25.20;88.00;;;;;;4939192;29;20054;-64
2022/09/02 11:48:02;;;;;;;6.68;1.30;;;25.30;86.50;;;;;;5015957;28;20042;-63
2022/09/02 11:50:45;;;;;;;3.20;1.30;;;25.20;86.70;;;;;;5011705;28;20421;-64
2022/09/02 11:53:19;;;;;;;;;;;25.40;86.60;;;;;;5030895;28;20358;-64
2022/09/02 11:55:58;;;;;;;3.65;1.48;;;25.40;85.90;;;;;;5000235;28;20016;-63
2022/09/02 11:58:44;;;;;;;2.65;1.17;;;25.50;85.20;;;;;;4994915;28;20049;-63
2022/09/02 12:01:31;;;;;;;2.63;1.20;;;25.40;85.40;;;;;;5015514;28;20046;-64
2022/09/02 12:04:03;;;;;;;3.35;1.02;;;25.40;85.30;;;;;;5012268;28;20416;-64
2022/09/02 12:06:29;;;;;;;4.47;1.35;;;25.40;85.30;;;;;;5011048;28;20038;-63
2022/09/02 12:08:56;;;;;;;1.67;1.20;;;25.50;85.50;;;;;;5012075;28;20030;-65
2022/09/02 12:11:36;;;;;;;3.40;1.30;;;25.50;85.80;;;;;;5017168;28;20033;-64
2022/09/02 12:14:03;;;;;;;1.52;1.20;;;25.60;84.10;;;;;;5002839;28;20133;-64
2022/09/02 12:16:29;;;;;;;5.65;1.48;;;25.60;85.30;;;;;;4995048;28;20046;-64
2022/09/02 12:18:56;;;;;;;3.05;1.17;;;25.60;85.20;;;;;;4994629;28;20365;-64
2022/09/02 12:21:26;;;;;;;1.77;1.20;;;25.50;84.80;;;;;;5001405;28;20335;-64
2022/09/02 12:23:55;;;;;;;4.03;1.45;;;25.60;85.20;;;;;;5010144;28;20096;-63
2022/09/02 12:26:36;;;;;;;3.08;1.40;;;25.60;84.50;;;;;;5027056;28;20111;-64
2022/09/02 12:29:12;;;;;;;3.00;1.48;;;25.50;84.20;;;;;;5024406;28;20132;-64
2022/09/02 12:31:43;;;;;;;4.18;1.30;;;25.60;85.10;;;;;;5013023;28;20042;-64
2022/09/02 12:34:21;;;;;;;6.07;1.50;;;25.60;84.00;;;;;;5012108;28;20046;-64
2022/09/02 12:36:52;;;;;;;1.98;1.10;;;25.70;84.10;;;;;;5011823;28;20056;-65
2022/09/02 12:39:24;;;;;;;4.30;1.42;;;25.70;84.20;;;;;;4997328;28;20451;-64
2022/09/02 12:42:01;;;;;;;3.03;1.30;;;25.60;84.00;;;;;;5013548;28;20470;-64
2022/09/02 12:44:54;;;;;;;3.08;1.30;;;25.70;84.70;;;;;;5012079;28;20082;-64
2022/09/02 12:47:49;;;;;;;2.28;1.23;;;25.70;84.80;;;;;;4989038;28;20046;-64
2022/09/02 12:50:27;;;;;;;6.40;1.52;;;25.60;84.00;;;;;;5007827;28;20044;-64
2022/09/02 12:53:19;;;;;;;2.30;1.40;;;25.60;84.00;;;;;;5013400;28;20124;-64
2022/09/02 12:56:03;;;;;;;3.15;1.20;;;25.60;84.40;;;;;;5006221;28;20034;-64
2022/09/02 12:58:34;;;;;;;3.47;1.48;;;25.60;83.70;;;;;;5011687;28;20042;-64
2022/09/02 13:01:37;;;;;;;2.33;1.50;;;25.60;83.40;;;;;;4999076;28;20377;-64
2022/09/02 13:04:18;;;;;;;1.97;1.20;;;25.60;84.10;;;;;;5011572;28;20383;-64
2022/09/02 13:07:25;;;;;;;4.63;1.38;;;25.70;83.10;;;;;;5011610;28;20042;-63
2022/09/02 13:10:06;;;;;;;3.53;1.45;;;25.70;83.90;;;;;;4994740;28;20117;-65
2022/09/02 13:13:11;;;;;;;2.00;1.48;;;25.60;83.30;;;;;;5018677;28;20046;-64
2022/09/02 13:16:03;;;;;;;2.03;1.40;;;25.60;83.50;;;;;;4993757;28;20494;-64